sensor_id;sensor_type;location;lat;lon;timestamp;pressure;altitude;pressure_sealevel;temperature;humidity
32789;BME280;19141;48.980;8.410;2023-04-30T04:22:32;100565.91;;;10.83;100.00
32789;BME280;19141;48.980;8.410;2023-04-30T04:24:58;100571.22;;;10.83;100.00
32789;BME280;19141;48.980;8.410;2023-04-30T04:27:23;100575.22;;;10.87;100.00
32789;BME280;19141;48.980;8.410;2023-04-30T04:29:50;100569.22;;;10.85;100.00
32789;BME280;19141;48.980;8.410;2023-04-30T04:32:16;100574.88;;;10.90;100.00
32789;BME280;19141;48.980;8.410;2023-04-30T04:34:42;100572.22;;;10.90;99.65
32789;BME280;19141;48.980;8.410;2023-04-30T04:37:08;100574.72;;;10.92;98.93
32789;BME280;19141;48.980;8.410;2023-04-30T04:39:34;100574.53;;;10.93;99.08
32789;BME280;19141;48.980;8.410;2023-04-30T04:42:02;100572.22;;;10.98;98.40
32789;BME280;19141;48.980;8.410;2023-04-30T04:44:27;100572.03;;;11.00;97.97
32789;BME280;19141;48.980;8.410;2023-04-30T04:46:54;100572.53;;;10.95;98.35
32789;BME280;19141;48.980;8.410;2023-04-30T04:49:21;100573.88;;;10.91;98.20
32789;BME280;19141;48.980;8.410;2023-04-30T04:51:46;100573.22;;;10.89;98.23
32789;BME280;19141;48.980;8.410;2023-04-30T04:54:12;100576.88;;;10.96;98.24
32789;BME280;19141;48.980;8.410;2023-04-30T04:56:38;100579.03;;;11.01;97.04
32789;BME280;19141;48.980;8.410;2023-04-30T04:59:03;100582.53;;;11.09;96.89
32789;BME280;19141;48.980;8.410;2023-04-30T05:01:29;100574.88;;;11.06;96.61
32789;BME280;19141;48.980;8.410;2023-04-30T05:03:55;100585.22;;;11.09;96.40
32789;BME280;19141;48.980;8.410;2023-04-30T05:06:20;100577.34;;;11.08;96.18
32789;BME280;19141;48.980;8.410;2023-04-30T05:08:46;100581.19;;;11.13;96.62
32789;BME280;19141;48.980;8.410;2023-04-30T05:11:11;100583.34;;;11.18;96.81
32789;BME280;19141;48.980;8.410;2023-04-30T05:13:37;100582.16;;;11.21;96.04
32789;BME280;19141;48.980;8.410;2023-04-30T05:16:03;100591.53;;;11.17;96.10
32789;BME280;19141;48.980;8.410;2023-04-30T05:18:28;100577.84;;;11.11;96.11
32789;BME280;19141;48.980;8.410;2023-04-30T05:20:53;100580.19;;;11.14;96.11
32789;BME280;19141;48.980;8.410;2023-04-30T05:23:19;100576.38;;;11.09;96.31
32789;BME280;19141;48.980;8.410;2023-04-30T05:25:44;100590.00;;;11.14;96.58
32789;BME280;19141;48.980;8.410;2023-04-30T05:28:10;100592.84;;;11.21;96.48
32789;BME280;19141;48.980;8.410;2023-04-30T05:30:36;100582.03;;;11.22;95.92
32789;BME280;19141;48.980;8.410;2023-04-30T05:33:01;100590.03;;;11.22;96.29
32789;BME280;19141;48.980;8.410;2023-04-30T05:35:27;100591.84;;;11.22;95.64
32789;BME280;19141;48.980;8.410;2023-04-30T05:37:54;100589.00;;;11.23;96.45
32789;BME280;19141;48.980;8.410;2023-04-30T05:40:20;100591.69;;;11.15;96.08
32789;BME280;19141;48.980;8.410;2023-04-30T05:42:45;100577.00;;;11.19;95.90
32789;BME280;19141;48.980;8.410;2023-04-30T05:45:12;100591.00;;;11.29;96.13
32789;BME280;19141;48.980;8.410;2023-04-30T05:47:39;100588.13;;;11.39;95.51
32789;BME280;19141;48.980;8.410;2023-04-30T05:50:05;100594.63;;;11.45;95.69
32789;BME280;19141;48.980;8.410;2023-04-30T05:52:30;100585.28;;;11.40;95.05
32789;BME280;19141;48.980;8.410;2023-04-30T05:54:56;100588.44;;;11.52;95.04
32789;BME280;19141;48.980;8.410;2023-04-30T05:57:22;100595.75;;;11.58;94.56
32789;BME280;19141;48.980;8.410;2023-04-30T05:59:47;100589.59;;;11.58;94.41
32789;BME280;19141;48.980;8.410;2023-04-30T06:02:12;100590.75;;;11.63;94.11
32789;BME280;19141;48.980;8.410;2023-04-30T06:04:38;100594.75;;;11.67;93.67
32789;BME280;19141;48.980;8.410;2023-04-30T06:07:03;100601.06;;;11.83;92.70
32789;BME280;19141;48.980;8.410;2023-04-30T06:09:29;100574.38;;;11.75;92.25
32789;BME280;19141;48.980;8.410;2023-04-30T06:11:54;100596.47;;;12.00;91.37
32789;BME280;19141;48.980;8.410;2023-04-30T06:14:20;100595.91;;;12.12;90.67
32789;BME280;19141;48.980;8.410;2023-04-30T06:16:47;100586.34;;;12.26;89.58
32789;BME280;19141;48.980;8.410;2023-04-30T06:19:12;100584.50;;;12.27;89.02
32789;BME280;19141;48.980;8.410;2023-04-30T06:21:38;100585.59;;;12.40;88.38
32789;BME280;19141;48.980;8.410;2023-04-30T06:24:03;100583.75;;;12.41;88.74
32789;BME280;19141;48.980;8.410;2023-04-30T06:26:29;100592.34;;;12.51;89.64
32789;BME280;19141;48.980;8.410;2023-04-30T06:28:55;100594.19;;;12.50;88.76
32789;BME280;19141;48.980;8.410;2023-04-30T06:31:21;100594.59;;;12.62;88.98
32789;BME280;19141;48.980;8.410;2023-04-30T06:33:46;100599.25;;;12.68;86.47
32789;BME280;19141;48.980;8.410;2023-04-30T06:36:11;100589.78;;;12.81;84.90
32789;BME280;19141;48.980;8.410;2023-04-30T06:38:37;100594.06;;;12.90;83.07
32789;BME280;19141;48.980;8.410;2023-04-30T06:41:02;100589.53;;;12.90;82.84
32789;BME280;19141;48.980;8.410;2023-04-30T06:43:28;100579.22;;;12.87;83.77
32789;BME280;19141;48.980;8.410;2023-04-30T06:45:53;100587.66;;;12.99;83.13
32789;BME280;19141;48.980;8.410;2023-04-30T06:48:19;100589.72;;;12.89;83.84
32789;BME280;19141;48.980;8.410;2023-04-30T06:50:44;100574.69;;;12.88;84.52
32789;BME280;19141;48.980;8.410;2023-04-30T06:53:11;100589.41;;;13.07;84.37
32789;BME280;19141;48.980;8.410;2023-04-30T06:55:36;100589.13;;;13.16;82.47
32789;BME280;19141;48.980;8.410;2023-04-30T06:58:02;100590.59;;;13.27;82.42
32789;BME280;19141;48.980;8.410;2023-04-30T07:00:27;100591.72;;;13.47;81.31
32789;BME280;19141;48.980;8.410;2023-04-30T07:02:52;100594.56;;;13.46;79.98
32789;BME280;19141;48.980;8.410;2023-04-30T07:05:18;100590.25;;;13.45;79.70
32789;BME280;19141;48.980;8.410;2023-04-30T07:07:43;100593.66;;;13.39;82.87
32789;BME280;19141;48.980;8.410;2023-04-30T07:10:09;100593.84;;;13.52;80.82
32789;BME280;19141;48.980;8.410;2023-04-30T07:12:34;100596.81;;;13.57;82.03
32789;BME280;19141;48.980;8.410;2023-04-30T07:15:00;100584.53;;;13.77;81.99
32789;BME280;19141;48.980;8.410;2023-04-30T07:17:25;100583.31;;;13.80;81.41
32789;BME280;19141;48.980;8.410;2023-04-30T07:19:51;100588.75;;;13.87;79.59
32789;BME280;19141;48.980;8.410;2023-04-30T07:22:16;100583.38;;;13.87;75.69
32789;BME280;19141;48.980;8.410;2023-04-30T07:24:41;100587.19;;;13.77;79.10
32789;BME280;19141;48.980;8.410;2023-04-30T07:27:07;100576.53;;;13.99;76.78
32789;BME280;19141;48.980;8.410;2023-04-30T07:29:34;100579.63;;;13.96;77.04
32789;BME280;19141;48.980;8.410;2023-04-30T07:31:59;100586.91;;;14.02;77.19
32789;BME280;19141;48.980;8.410;2023-04-30T07:34:25;100570.25;;;14.06;76.99
32789;BME280;19141;48.980;8.410;2023-04-30T07:36:50;100579.50;;;14.04;76.93
32789;BME280;19141;48.980;8.410;2023-04-30T07:39:16;100579.72;;;14.24;74.94
32789;BME280;19141;48.980;8.410;2023-04-30T07:41:42;100573.81;;;14.28;73.08
32789;BME280;19141;48.980;8.410;2023-04-30T07:44:07;100577.63;;;14.40;73.91
32789;BME280;19141;48.980;8.410;2023-04-30T07:46:33;100567.88;;;14.33;74.10
32789;BME280;19141;48.980;8.410;2023-04-30T07:48:59;100572.78;;;14.29;73.17
32789;BME280;19141;48.980;8.410;2023-04-30T07:51:24;100574.94;;;14.40;74.16
32789;BME280;19141;48.980;8.410;2023-04-30T07:53:51;100571.19;;;14.50;71.60
32789;BME280;19141;48.980;8.410;2023-04-30T07:56:17;100570.41;;;14.56;72.74
32789;BME280;19141;48.980;8.410;2023-04-30T07:58:43;100569.38;;;14.57;68.77
32789;BME280;19141;48.980;8.410;2023-04-30T08:01:08;100564.31;;;14.47;69.09
32789;BME280;19141;48.980;8.410;2023-04-30T08:03:33;100566.34;;;14.45;69.55
32789;BME280;19141;48.980;8.410;2023-04-30T08:05:59;100570.53;;;14.48;71.01
32789;BME280;19141;48.980;8.410;2023-04-30T08:08:24;100565.19;;;14.48;71.58
32789;BME280;19141;48.980;8.410;2023-04-30T08:10:50;100568.00;;;14.61;69.33
32789;BME280;19141;48.980;8.410;2023-04-30T08:13:15;100563.31;;;14.70;67.99
32789;BME280;19141;48.980;8.410;2023-04-30T08:15:40;100572.72;;;14.80;68.33
32789;BME280;19141;48.980;8.410;2023-04-30T08:18:08;100572.22;;;14.98;64.38
32789;BME280;19141;48.980;8.410;2023-04-30T08:20:33;100571.97;;;14.93;66.71
32789;BME280;19141;48.980;8.410;2023-04-30T08:22:59;100567.84;;;14.90;68.12
32789;BME280;19141;48.980;8.410;2023-04-30T08:25:24;100570.88;;;15.09;66.99
32789;BME280;19141;48.980;8.410;2023-04-30T08:27:50;100581.03;;;15.13;64.80
32789;BME280;19141;48.980;8.410;2023-04-30T08:30:15;100572.28;;;15.05;65.39
32789;BME280;19141;48.980;8.410;2023-04-30T08:32:41;100568.44;;;15.14;64.95
32789;BME280;19141;48.980;8.410;2023-04-30T08:35:08;100571.94;;;15.14;65.80
32789;BME280;19141;48.980;8.410;2023-04-30T08:37:33;100588.53;;;15.25;65.19
32789;BME280;19141;48.980;8.410;2023-04-30T08:39:59;100575.41;;;15.36;62.74
32789;BME280;19141;48.980;8.410;2023-04-30T08:42:29;100580.84;;;15.50;61.07
32789;BME280;19141;48.980;8.410;2023-04-30T08:44:55;100569.00;;;15.65;60.88
32789;BME280;19141;48.980;8.410;2023-04-30T08:47:21;100568.63;;;15.75;60.91
32789;BME280;19141;48.980;8.410;2023-04-30T08:49:47;100579.56;;;15.67;59.82
32789;BME280;19141;48.980;8.410;2023-04-30T08:52:13;100583.66;;;15.63;59.16
32789;BME280;19141;48.980;8.410;2023-04-30T08:54:38;100578.75;;;15.73;58.14
32789;BME280;19141;48.980;8.410;2023-04-30T08:57:04;100582.91;;;15.82;57.32
32789;BME280;19141;48.980;8.410;2023-04-30T08:59:30;100576.72;;;15.82;57.74
32789;BME280;19141;48.980;8.410;2023-04-30T09:01:55;100573.28;;;15.60;58.07
32789;BME280;19141;48.980;8.410;2023-04-30T09:04:21;100580.22;;;15.82;58.06
32789;BME280;19141;48.980;8.410;2023-04-30T09:06:46;100574.66;;;15.84;56.91
32789;BME280;19141;48.980;8.410;2023-04-30T09:09:13;100580.84;;;15.84;57.11
32789;BME280;19141;48.980;8.410;2023-04-30T09:11:39;100581.31;;;15.53;57.25
32789;BME280;19141;48.980;8.410;2023-04-30T09:14:06;100565.13;;;15.74;56.95
32789;BME280;19141;48.980;8.410;2023-04-30T09:16:49;100569.22;;;15.70;57.84
32789;BME280;19141;48.980;8.410;2023-04-30T09:19:28;100566.75;;;15.69;57.53
32789;BME280;19141;48.980;8.410;2023-04-30T09:21:55;100567.53;;;15.63;58.98
32789;BME280;19141;48.980;8.410;2023-04-30T09:24:20;100579.13;;;15.35;61.32
32789;BME280;19141;48.980;8.410;2023-04-30T09:26:46;100569.38;;;15.28;61.60
32789;BME280;19141;48.980;8.410;2023-04-30T09:29:12;100577.78;;;15.53;61.83
32789;BME280;19141;48.980;8.410;2023-04-30T09:31:41;100570.84;;;15.37;62.20
32789;BME280;19141;48.980;8.410;2023-04-30T09:34:06;100572.34;;;15.39;62.37
32789;BME280;19141;48.980;8.410;2023-04-30T09:36:32;100558.22;;;15.31;62.12
32789;BME280;19141;48.980;8.410;2023-04-30T09:39:11;100569.09;;;15.51;63.52
32789;BME280;19141;48.980;8.410;2023-04-30T09:41:38;100572.13;;;15.69;61.71
32789;BME280;19141;48.980;8.410;2023-04-30T09:44:03;100574.09;;;15.95;61.38
32789;BME280;19141;48.980;8.410;2023-04-30T09:46:31;100560.97;;;16.20;55.98
32789;BME280;19141;48.980;8.410;2023-04-30T09:48:58;100560.78;;;16.35;55.87
32789;BME280;19141;48.980;8.410;2023-04-30T09:51:24;100562.63;;;16.27;55.71
32789;BME280;19141;48.980;8.410;2023-04-30T09:53:51;100564.16;;;16.50;55.79
32789;BME280;19141;48.980;8.410;2023-04-30T09:56:21;100562.53;;;16.82;54.86
32789;BME280;19141;48.980;8.410;2023-04-30T09:58:52;100562.34;;;16.77;55.10
32789;BME280;19141;48.980;8.410;2023-04-30T10:01:22;100564.00;;;16.78;55.45
32789;BME280;19141;48.980;8.410;2023-04-30T10:03:50;100558.16;;;16.61;56.61
32789;BME280;19141;48.980;8.410;2023-04-30T10:06:17;100556.03;;;16.30;55.87
32789;BME280;19141;48.980;8.410;2023-04-30T10:08:48;100562.47;;;16.62;55.02
32789;BME280;19141;48.980;8.410;2023-04-30T10:11:20;100565.66;;;16.92;53.40
32789;BME280;19141;48.980;8.410;2023-04-30T10:13:53;100564.41;;;17.01;51.22
32789;BME280;19141;48.980;8.410;2023-04-30T10:18:53;100559.44;;;16.92;50.20
32789;BME280;19141;48.980;8.410;2023-04-30T10:21:22;100558.38;;;17.19;50.08
32789;BME280;19141;48.980;8.410;2023-04-30T10:23:49;100562.66;;;17.53;49.89
32789;BME280;19141;48.980;8.410;2023-04-30T10:26:16;100550.03;;;17.74;48.56
32789;BME280;19141;48.980;8.410;2023-04-30T10:28:42;100551.81;;;17.86;47.03
32789;BME280;19141;48.980;8.410;2023-04-30T10:31:08;100547.88;;;17.89;47.09
32789;BME280;19141;48.980;8.410;2023-04-30T10:33:47;100532.19;;;17.73;46.80
32789;BME280;19141;48.980;8.410;2023-04-30T10:36:32;100530.34;;;17.53;47.70
32789;BME280;19141;48.980;8.410;2023-04-30T10:38:58;100535.09;;;17.58;48.92
32789;BME280;19141;48.980;8.410;2023-04-30T10:41:25;100524.34;;;17.58;47.39
32789;BME280;19141;48.980;8.410;2023-04-30T10:43:55;100522.03;;;17.68;46.71
32789;BME280;19141;48.980;8.410;2023-04-30T10:46:22;100521.00;;;17.69;46.99
32789;BME280;19141;48.980;8.410;2023-04-30T10:48:49;100505.25;;;17.59;46.86
32789;BME280;19141;48.980;8.410;2023-04-30T10:51:14;100521.41;;;17.73;46.29
32789;BME280;19141;48.980;8.410;2023-04-30T10:53:41;100513.56;;;17.58;46.31
32789;BME280;19141;48.980;8.410;2023-04-30T10:56:07;100522.19;;;17.80;46.84
32789;BME280;19141;48.980;8.410;2023-04-30T10:58:34;100518.78;;;18.04;46.26
32789;BME280;19141;48.980;8.410;2023-04-30T11:01:14;100522.78;;;17.95;46.46
32789;BME280;19141;48.980;8.410;2023-04-30T11:03:42;100527.75;;;17.92;45.40
32789;BME280;19141;48.980;8.410;2023-04-30T11:06:47;100510.34;;;17.94;44.52
32789;BME280;19141;48.980;8.410;2023-04-30T11:09:14;100510.88;;;18.09;44.68
32789;BME280;19141;48.980;8.410;2023-04-30T11:11:39;100517.63;;;17.87;45.29
32789;BME280;19141;48.980;8.410;2023-04-30T11:14:05;100512.00;;;17.95;44.88
32789;BME280;19141;48.980;8.410;2023-04-30T11:16:34;100512.31;;;18.12;45.03
32789;BME280;19141;48.980;8.410;2023-04-30T11:19:10;100510.16;;;17.89;44.06
32789;BME280;19141;48.980;8.410;2023-04-30T11:27:25;100493.25;;;18.70;42.60
32789;BME280;19141;48.980;8.410;2023-04-30T11:29:52;100502.44;;;18.62;43.61
32789;BME280;19141;48.980;8.410;2023-04-30T11:32:19;100500.00;;;18.23;43.42
32789;BME280;19141;48.980;8.410;2023-04-30T11:34:45;100496.13;;;18.12;43.11
32789;BME280;19141;48.980;8.410;2023-04-30T11:37:17;100490.31;;;18.15;43.60
32789;BME280;19141;48.980;8.410;2023-04-30T11:39:43;100495.66;;;18.53;41.44
32789;BME280;19141;48.980;8.410;2023-04-30T11:42:09;100493.78;;;18.85;42.00
32789;BME280;19141;48.980;8.410;2023-04-30T11:44:34;100479.94;;;18.75;42.04
32789;BME280;19141;48.980;8.410;2023-04-30T11:47:00;100482.63;;;19.00;41.82
32789;BME280;19141;48.980;8.410;2023-04-30T11:49:26;100486.09;;;19.25;40.98
32789;BME280;19141;48.980;8.410;2023-04-30T11:51:51;100479.00;;;18.88;40.96
32789;BME280;19141;48.980;8.410;2023-04-30T11:54:17;100480.25;;;18.60;41.34
32789;BME280;19141;48.980;8.410;2023-04-30T11:56:47;100473.81;;;18.86;41.96
32789;BME280;19141;48.980;8.410;2023-04-30T11:59:13;100475.75;;;19.04;41.41
32789;BME280;19141;48.980;8.410;2023-04-30T12:01:39;100474.84;;;18.60;41.25
32789;BME280;19141;48.980;8.410;2023-04-30T12:04:06;100481.44;;;19.14;40.37
32789;BME280;19141;48.980;8.410;2023-04-30T12:06:33;100475.88;;;19.28;40.28
32789;BME280;19141;48.980;8.410;2023-04-30T12:09:00;100467.63;;;19.04;41.15
32789;BME280;19141;48.980;8.410;2023-04-30T12:11:29;100474.00;;;20.13;40.40
32789;BME280;19141;48.980;8.410;2023-04-30T12:13:57;100476.75;;;19.95;38.63
32789;BME280;19141;48.980;8.410;2023-04-30T12:16:27;100475.66;;;19.47;39.05
32789;BME280;19141;48.980;8.410;2023-04-30T12:18:52;100468.78;;;19.70;39.75
32789;BME280;19141;48.980;8.410;2023-04-30T12:21:20;100467.03;;;19.57;39.12
32789;BME280;19141;48.980;8.410;2023-04-30T12:23:46;100472.28;;;19.52;40.09
32789;BME280;19141;48.980;8.410;2023-04-30T12:26:12;100461.84;;;19.74;39.97
32789;BME280;19141;48.980;8.410;2023-04-30T12:28:37;100461.19;;;19.60;39.96
32789;BME280;19141;48.980;8.410;2023-04-30T12:31:03;100452.81;;;19.80;39.68
32789;BME280;19141;48.980;8.410;2023-04-30T12:33:30;100460.28;;;19.48;40.15
32789;BME280;19141;48.980;8.410;2023-04-30T12:35:56;100457.41;;;19.43;41.12
32789;BME280;19141;48.980;8.410;2023-04-30T12:38:24;100456.00;;;19.22;41.76
32789;BME280;19141;48.980;8.410;2023-04-30T12:40:50;100454.41;;;18.96;42.29
32789;BME280;19141;48.980;8.410;2023-04-30T12:43:16;100444.41;;;17.97;43.79
32789;BME280;19141;48.980;8.410;2023-04-30T12:45:50;100461.59;;;18.84;42.86
32789;BME280;19141;48.980;8.410;2023-04-30T12:48:17;100459.56;;;18.23;43.21
32789;BME280;19141;48.980;8.410;2023-04-30T12:50:53;100462.44;;;18.28;43.85
32789;BME280;19141;48.980;8.410;2023-04-30T12:53:19;100456.56;;;18.06;44.22
32789;BME280;19141;48.980;8.410;2023-04-30T12:56:08;100457.03;;;18.59;43.08
32789;BME280;19141;48.980;8.410;2023-04-30T12:58:37;100454.31;;;18.59;42.67
32789;BME280;19141;48.980;8.410;2023-04-30T13:01:03;100440.28;;;18.51;42.69
32789;BME280;19141;48.980;8.410;2023-04-30T13:03:29;100443.28;;;18.67;40.91
32789;BME280;19141;48.980;8.410;2023-04-30T13:05:54;100446.34;;;18.46;41.80
32789;BME280;19141;48.980;8.410;2023-04-30T13:08:20;100444.34;;;18.60;41.53
32789;BME280;19141;48.980;8.410;2023-04-30T13:10:46;100451.84;;;18.83;40.65
32789;BME280;19141;48.980;8.410;2023-04-30T13:13:14;100444.66;;;18.95;41.29
32789;BME280;19141;48.980;8.410;2023-04-30T13:15:41;100442.41;;;19.10;41.14
32789;BME280;19141;48.980;8.410;2023-04-30T13:18:07;100444.63;;;19.20;41.25
32789;BME280;19141;48.980;8.410;2023-04-30T13:20:37;100430.38;;;19.13;40.30
32789;BME280;19141;48.980;8.410;2023-04-30T13:23:03;100428.47;;;18.95;40.73
32789;BME280;19141;48.980;8.410;2023-04-30T13:25:29;100435.75;;;18.94;41.65
32789;BME280;19141;48.980;8.410;2023-04-30T13:27:54;100429.47;;;19.01;42.12
32789;BME280;19141;48.980;8.410;2023-04-30T13:30:22;100429.97;;;19.28;40.23
32789;BME280;19141;48.980;8.410;2023-04-30T13:32:47;100429.06;;;19.15;39.79
32789;BME280;19141;48.980;8.410;2023-04-30T13:35:13;100427.75;;;19.24;40.84
32789;BME280;19141;48.980;8.410;2023-04-30T13:37:38;100428.63;;;19.37;40.49
32789;BME280;19141;48.980;8.410;2023-04-30T13:40:09;100414.91;;;19.38;41.78
32789;BME280;19141;48.980;8.410;2023-04-30T13:42:37;100407.88;;;19.49;40.33
32789;BME280;19141;48.980;8.410;2023-04-30T13:45:06;100399.28;;;19.40;39.33
32789;BME280;19141;48.980;8.410;2023-04-30T13:47:32;100404.06;;;19.57;39.36
32789;BME280;19141;48.980;8.410;2023-04-30T13:49:58;100411.66;;;19.30;40.20
32789;BME280;19141;48.980;8.410;2023-04-30T13:52:24;100407.25;;;19.35;39.75
32789;BME280;19141;48.980;8.410;2023-04-30T13:54:50;100403.41;;;19.43;39.41
32789;BME280;19141;48.980;8.410;2023-04-30T13:57:15;100399.94;;;19.54;39.18
32789;BME280;19141;48.980;8.410;2023-04-30T13:59:41;100399.91;;;19.24;39.37
32789;BME280;19141;48.980;8.410;2023-04-30T14:02:06;100388.94;;;19.37;39.98
32789;BME280;19141;48.980;8.410;2023-04-30T14:04:32;100369.16;;;19.07;40.27
32789;BME280;19141;48.980;8.410;2023-04-30T14:06:57;100382.84;;;19.42;39.52
32789;BME280;19141;48.980;8.410;2023-04-30T14:09:22;100385.59;;;19.05;40.71
32789;BME280;19141;48.980;8.410;2023-04-30T14:11:48;100396.25;;;19.48;40.14
32789;BME280;19141;48.980;8.410;2023-04-30T14:14:13;100392.59;;;19.43;38.91
32789;BME280;19141;48.980;8.410;2023-04-30T14:16:39;100392.56;;;19.31;39.38
32789;BME280;19141;48.980;8.410;2023-04-30T14:19:05;100390.69;;;19.32;39.42
32789;BME280;19141;48.980;8.410;2023-04-30T14:21:30;100380.31;;;19.29;39.85
32789;BME280;19141;48.980;8.410;2023-04-30T14:23:57;100377.19;;;19.32;39.83
32789;BME280;19141;48.980;8.410;2023-04-30T14:26:23;100371.88;;;19.07;40.67
32789;BME280;19141;48.980;8.410;2023-04-30T14:28:48;100379.34;;;19.23;40.61
32789;BME280;19141;48.980;8.410;2023-04-30T14:31:14;100373.97;;;19.05;40.04
32789;BME280;19141;48.980;8.410;2023-04-30T14:33:39;100376.38;;;18.94;41.02
32789;BME280;19141;48.980;8.410;2023-04-30T14:36:06;100367.38;;;19.19;40.49
32789;BME280;19141;48.980;8.410;2023-04-30T14:38:32;100365.84;;;19.23;39.94
32789;BME280;19141;48.980;8.410;2023-04-30T14:40:57;100352.47;;;18.98;40.61
32789;BME280;19141;48.980;8.410;2023-04-30T14:43:23;100362.06;;;18.94;40.21
32789;BME280;19141;48.980;8.410;2023-04-30T14:45:49;100354.94;;;19.30;39.32
32789;BME280;19141;48.980;8.410;2023-04-30T14:48:14;100353.25;;;19.17;40.68
32789;BME280;19141;48.980;8.410;2023-04-30T14:50:40;100348.53;;;18.76;40.58
32789;BME280;19141;48.980;8.410;2023-04-30T14:53:05;100347.25;;;19.15;40.01
32789;BME280;19141;48.980;8.410;2023-04-30T14:55:31;100352.38;;;19.05;40.48
32789;BME280;19141;48.980;8.410;2023-04-30T14:57:57;100356.34;;;19.20;39.74
32789;BME280;19141;48.980;8.410;2023-04-30T15:00:23;100350.78;;;18.97;40.02
32789;BME280;19141;48.980;8.410;2023-04-30T15:02:49;100343.28;;;19.17;39.11
32789;BME280;19141;48.980;8.410;2023-04-30T15:05:14;100349.44;;;19.06;40.02
32789;BME280;19141;48.980;8.410;2023-04-30T15:07:40;100341.81;;;18.85;40.85
32789;BME280;19141;48.980;8.410;2023-04-30T15:10:05;100337.25;;;18.85;41.09
32789;BME280;19141;48.980;8.410;2023-04-30T15:12:32;100347.22;;;18.85;40.64
32789;BME280;19141;48.980;8.410;2023-04-30T15:14:58;100346.16;;;18.86;41.17
32789;BME280;19141;48.980;8.410;2023-04-30T15:17:25;100339.94;;;18.85;40.98
32789;BME280;19141;48.980;8.410;2023-04-30T15:19:50;100340.97;;;18.84;41.80
32789;BME280;19141;48.980;8.410;2023-04-30T15:22:15;100337.59;;;18.89;41.98
32789;BME280;19141;48.980;8.410;2023-04-30T15:24:41;100338.66;;;18.88;42.10
32789;BME280;19141;48.980;8.410;2023-04-30T15:27:06;100335.22;;;18.81;42.50
32789;BME280;19141;48.980;8.410;2023-04-30T15:29:32;100337.75;;;18.76;41.44
32789;BME280;19141;48.980;8.410;2023-04-30T15:31:57;100330.94;;;18.73;41.61
32789;BME280;19141;48.980;8.410;2023-04-30T15:34:23;100331.31;;;18.77;40.96
32789;BME280;19141;48.980;8.410;2023-04-30T15:36:50;100330.72;;;18.75;41.70
32789;BME280;19141;48.980;8.410;2023-04-30T15:39:15;100330.78;;;18.68;41.99
32789;BME280;19141;48.980;8.410;2023-04-30T15:41:42;100332.06;;;18.84;41.23
32789;BME280;19141;48.980;8.410;2023-04-30T15:44:09;100324.84;;;18.78;41.47
32789;BME280;19141;48.980;8.410;2023-04-30T15:46:34;100320.28;;;18.60;41.43
32789;BME280;19141;48.980;8.410;2023-04-30T15:49:00;100316.34;;;18.56;42.22
32789;BME280;19141;48.980;8.410;2023-04-30T15:51:25;100311.66;;;18.69;41.35
32789;BME280;19141;48.980;8.410;2023-04-30T15:53:53;100317.03;;;18.33;41.07
32789;BME280;19141;48.980;8.410;2023-04-30T15:56:19;100316.34;;;18.56;40.37
32789;BME280;19141;48.980;8.410;2023-04-30T15:58:50;100315.31;;;18.57;41.44
32789;BME280;19141;48.980;8.410;2023-04-30T16:01:15;100318.06;;;18.50;42.52
32789;BME280;19141;48.980;8.410;2023-04-30T16:03:41;100306.38;;;18.56;42.64
32789;BME280;19141;48.980;8.410;2023-04-30T16:06:06;100309.72;;;18.58;42.67
32789;BME280;19141;48.980;8.410;2023-04-30T16:08:31;100312.69;;;18.50;42.64
32789;BME280;19141;48.980;8.410;2023-04-30T16:10:58;100305.41;;;18.51;42.98
32789;BME280;19141;48.980;8.410;2023-04-30T16:13:24;100311.19;;;18.54;42.44
32789;BME280;19141;48.980;8.410;2023-04-30T16:15:49;100295.16;;;18.59;41.56
32789;BME280;19141;48.980;8.410;2023-04-30T16:18:15;100294.34;;;18.59;41.85
32789;BME280;19141;48.980;8.410;2023-04-30T16:20:41;100290.81;;;18.58;42.24
32789;BME280;19141;48.980;8.410;2023-04-30T16:23:07;100290.22;;;18.56;42.19
32789;BME280;19141;48.980;8.410;2023-04-30T16:25:32;100292.66;;;18.58;41.72
32789;BME280;19141;48.980;8.410;2023-04-30T16:27:58;100290.59;;;18.41;41.50
32789;BME280;19141;48.980;8.410;2023-04-30T16:30:24;100282.56;;;18.53;42.23
32789;BME280;19141;48.980;8.410;2023-04-30T16:32:49;100281.22;;;18.44;43.14
32789;BME280;19141;48.980;8.410;2023-04-30T16:35:15;100280.16;;;18.45;42.93
32789;BME280;19141;48.980;8.410;2023-04-30T16:37:40;100283.91;;;18.44;42.22
32789;BME280;19141;48.980;8.410;2023-04-30T16:40:06;100286.00;;;18.42;42.02
32789;BME280;19141;48.980;8.410;2023-04-30T16:42:32;100281.81;;;18.28;42.50
32789;BME280;19141;48.980;8.410;2023-04-30T16:44:58;100278.34;;;18.21;42.88
32789;BME280;19141;48.980;8.410;2023-04-30T16:47:23;100274.22;;;18.18;42.57
32789;BME280;19141;48.980;8.410;2023-04-30T16:49:48;100276.97;;;18.11;43.75
32789;BME280;19141;48.980;8.410;2023-04-30T16:52:14;100269.06;;;18.16;43.78
32789;BME280;19141;48.980;8.410;2023-04-30T16:54:39;100267.34;;;18.22;43.55
32789;BME280;19141;48.980;8.410;2023-04-30T16:57:05;100265.47;;;18.23;43.72
32789;BME280;19141;48.980;8.410;2023-04-30T16:59:31;100261.63;;;18.12;44.09
32789;BME280;19141;48.980;8.410;2023-04-30T17:01:56;100259.44;;;18.02;44.16
32789;BME280;19141;48.980;8.410;2023-04-30T17:04:24;100257.63;;;17.96;44.63
32789;BME280;19141;48.980;8.410;2023-04-30T17:06:50;100270.50;;;17.94;44.60
32789;BME280;19141;48.980;8.410;2023-04-30T17:09:15;100266.00;;;17.88;44.84
32789;BME280;19141;48.980;8.410;2023-04-30T17:11:41;100264.66;;;17.97;44.96
32789;BME280;19141;48.980;8.410;2023-04-30T17:14:07;100266.75;;;17.95;44.50
32789;BME280;19141;48.980;8.410;2023-04-30T17:16:32;100266.53;;;17.97;45.50